Davison, MI

05:42 AM EDT 2015 apirila ren 26 an (GMT -0400)
Burton - wxbeacon.com | | Change Station
CLOSE
Current Station
Personal Weather Stations
Location: Burton, MI
Elevation: 766 ft
Nearby Weather Stations

Elev 766 ft 43.03 °N, 83.59 °W | Updated 1 minute ago

Oskarbia
Oskarbia
29.1 °F
Feels Like 29 °F
N
0.0
Haizea Aldagarria Haizea from Ekialde
Gusts 0.0 mph

Gaur
High -- | Low -- °F
--% Chance of Precip.
Yesterday
High -- | Low -- °F
Precip. -- in
6:35 AM 8:29 PM
First Quarter, 54% visible
Presioa 29.91 in
Ikusgaitasuna 10.0 Miliak
Clouds Oskarbia
Izozki haizeak 29 °F
Ihintzaren maila 24 °F
Afoinua 80%
Rainfall 0.00 in
Snow Depth Not available.
UV 0 out of 12
Pollen 10.20 out of 12
Air Quality Not available.
Flu Activity Regional
METAR KFNT 260853Z AUTO 30003KT 10SM CLR 00/M05 A2989 RMK AO2 SLP126 T00001050 53005 $

More Conditions Fewer Conditions

Presioa 29.91 in
Ikusgaitasuna 10.0 Miliak
Clouds Oskarbia
Izozki haizeak 29 °F
Ihintzaren maila 24 °F
Afoinua 80%
Rainfall 0.00 in
Snow Depth Not available.
UV 0 out of 12
Pollen 10.20 out of 12
Air Quality Not available.
Flu Activity Regional
METAR KFNT 260853Z AUTO 30003KT 10SM CLR 00/M05 A2989 RMK AO2 SLP126 T00001050 53005 $

More Conditions Fewer Conditions

The full scope of the disaster following a powerful 7.8-magnitude earthquake in Nepal may not come into view for days, but global charities are already sending emergency aid. Click to see how you can help.

10-Day Weather Forecast

Almanac

Astronomy

Apr. 26, 2015 Rise Set
Actual Time
Civil Twilight
Nautical Twilight
Astronomical Twilight
Moon
Length Of Visible Light
Length of Day
Tomorrow will be .
, % of the Moon is Illuminated

Today's Extremes

State Highs State Lows

Community

WunderPhotos

Upload Photos

1,816,952 photos uploaded!

WunderBlogs® & News

Nearby

Air Quality

  Air Quality AQ Index Pollutant
Not available.

Snow Depth

Station Depth Elevation

Earthquake Activity

City Distance Mag. Time & Date
Minimum magnitude displayed is 2.5.

Coastal Water Temperatures

Lekua Tenperatura

Stations

Nearby Weather Stations

Station Location Temp Izozki haizeak Ihintzaren maila Afoinua Haizea Precip. Elev Eguneratuta Type